Time;durP1;ratioP1;P1;durP2;ratioP2;P2;SDS_P1;SDS_P2;PMS_P1;PMS_P2;Temp;Humidity;BMP_temperature;BMP_pressure;BME280_temperature;BME280_humidity;BME280_pressure;Samples;Min_cycle;Max_cycle;Signal;HPM_P1;HPM_P2
2023/07/30 00:00:20;;;;;;;8.73;1.97;;;;;;;25.07;46.05;98626.22;5033164;28;20193;-84
2023/07/30 00:02:46;;;;;;;5.97;2.10;;;;;;;25.00;46.45;98629.63;5033256;28;20244;-84
2023/07/30 00:05:11;;;;;;;5.07;1.60;;;;;;;25.00;46.35;98629.63;5032162;28;20183;-84
2023/07/30 00:07:38;;;;;;;3.33;1.63;;;;;;;25.00;46.41;98628.78;5033093;28;20264;-84
2023/07/30 00:10:03;;;;;;;7.77;2.20;;;;;;;24.94;46.62;98633.06;5032942;28;20191;-84
2023/07/30 00:12:30;;;;;;;7.30;2.47;;;;;;;24.89;46.66;98630.13;5032911;28;20243;-84
2023/07/30 00:14:55;;;;;;;8.40;2.00;;;;;;;24.90;47.05;98630.91;5033516;28;20277;-84
2023/07/30 00:17:22;;;;;;;7.90;1.97;;;;;;;24.86;47.14;98635.00;5015613;28;20265;-84
2023/07/30 00:19:47;;;;;;;3.07;1.80;;;;;;;24.82;46.81;98639.03;5032884;28;20202;-83
2023/07/30 00:22:14;;;;;;;4.77;1.70;;;;;;;24.74;46.69;98639.94;5032969;28;20202;-83
2023/07/30 00:24:39;;;;;;;4.90;2.40;;;;;;;24.71;46.61;98632.25;5033385;28;20190;-84
2023/07/30 00:27:05;;;;;;;4.47;2.03;;;;;;;24.67;46.21;98641.69;5015869;28;20602;-84
2023/07/30 00:29:32;;;;;;;4.57;1.83;;;;;;;24.59;46.80;98638.22;5032894;28;20201;-84
2023/07/30 00:31:57;;;;;;;4.67;1.97;;;;;;;24.54;46.88;98636.09;5032850;28;20627;-83
2023/07/30 00:34:24;;;;;;;3.83;1.60;;;;;;;24.50;47.62;98634.81;5032612;28;20686;-84
2023/07/30 00:36:50;;;;;;;4.70;1.93;;;;;;;24.43;48.22;98637.38;5032821;28;20632;-84
2023/07/30 00:39:17;;;;;;;6.57;1.60;;;;;;;24.44;47.60;98638.19;5032748;28;20702;-84
2023/07/30 00:41:42;;;;;;;3.10;1.50;;;;;;;24.42;47.22;98638.38;5033045;28;20186;-83
2023/07/30 00:44:07;;;;;;;4.37;2.00;;;;;;;24.38;48.21;98641.59;5033043;28;20189;-83
2023/07/30 00:46:34;;;;;;;4.57;1.50;;;;;;;24.31;48.21;98641.50;5032532;28;20620;-83
2023/07/30 00:48:59;;;;;;;4.20;1.83;;;;;;;24.25;48.82;98638.69;5032693;28;20540;-83
2023/07/30 00:51:27;;;;;;;3.33;1.80;;;;;;;24.30;48.72;98649.69;5015341;28;20190;-83
2023/07/30 00:53:53;;;;;;;5.93;1.50;;;;;;;24.40;48.37;98634.19;5015238;28;20186;-83
2023/07/30 00:56:18;;;;;;;5.83;1.93;;;;;;;24.48;48.11;98636.81;5032631;28;20240;-83
2023/07/30 00:58:48;;;;;;;2.83;1.67;;;;;;;24.47;47.62;98637.84;5032461;28;20206;-83
2023/07/30 01:01:13;;;;;;;5.43;1.93;;;;;;;24.41;47.76;98651.94;5032454;28;20194;-83
2023/07/30 01:03:40;;;;;;;4.57;1.80;;;;;;;24.36;48.25;98643.63;5032569;28;20189;-84
2023/07/30 01:06:07;;;;;;;4.43;1.97;;;;;;;24.36;48.04;98638.25;5032413;28;20199;-83
2023/07/30 01:08:33;;;;;;;11.53;2.73;;;;;;;24.40;47.93;98647.59;5035869;28;20175;-84
2023/07/30 01:10:58;;;;;;;5.97;2.23;;;;;;;24.42;48.23;98648.28;5036060;28;20185;-83
2023/07/30 01:13:24;;;;;;;5.83;2.17;;;;;;;24.43;48.26;98650.75;5018589;28;20265;-83
2023/07/30 01:15:50;;;;;;;5.03;2.03;;;;;;;24.34;48.55;98651.00;5035798;28;20616;-83
2023/07/30 01:18:15;;;;;;;6.63;2.37;;;;;;;24.30;48.52;98645.16;5035815;28;20675;-83
2023/07/30 01:20:43;;;;;;;5.57;2.77;;;;;;;24.26;48.36;98649.22;5018441;28;20265;-83
2023/07/30 01:23:08;;;;;;;3.73;1.97;;;;;;;24.19;48.35;98650.94;5036103;28;20269;-83
2023/07/30 01:25:36;;;;;;;4.70;2.23;;;;;;;24.18;48.45;98646.63;5035775;28;20616;-83
2023/07/30 01:28:05;;;;;;;5.13;1.87;;;;;;;24.26;48.11;98643.88;5036025;28;20175;-83
2023/07/30 01:30:35;;;;;;;5.00;1.57;;;;;;;24.27;48.29;98644.69;5018293;28;20608;-83
2023/07/30 01:33:04;;;;;;;4.00;2.07;;;;;;;24.13;48.39;98646.31;5035688;28;20639;-83
2023/07/30 01:35:32;;;;;;;4.00;2.03;;;;;;;24.07;48.59;98648.81;5035580;28;20175;-83
2023/07/30 01:38:02;;;;;;;6.23;1.80;;;;;;;24.01;48.55;98650.38;5018047;28;20606;-83
2023/07/30 01:40:27;;;;;;;3.90;1.60;;;;;;;23.96;49.04;98654.56;5035773;28;20238;-83
2023/07/30 01:42:53;;;;;;;3.83;2.10;;;;;;;23.85;49.77;98650.47;5018062;28;20174;-83
2023/07/30 01:45:19;;;;;;;3.27;1.77;;;;;;;23.75;50.18;98648.00;5035410;28;20186;-83
2023/07/30 01:47:46;;;;;;;2.90;1.60;;;;;;;23.68;50.42;98655.09;5018908;28;20194;-83
2023/07/30 01:50:13;;;;;;;5.33;2.13;;;;;;;23.68;50.07;98646.22;5035574;28;20319;-83
2023/07/30 01:52:39;;;;;;;2.90;1.67;;;;;;;23.65;50.71;98643.88;5017805;28;20281;-84
2023/07/30 01:55:06;;;;;;;3.80;1.90;;;;;;;23.63;50.44;98652.09;5035448;28;20174;-83
2023/07/30 01:57:33;;;;;;;5.03;1.77;;;;;;;23.75;50.36;98648.00;5035204;28;20253;-83
2023/07/30 01:59:59;;;;;;;4.33;1.63;;;;;;;23.78;49.91;98653.03;5017662;28;20256;-83
2023/07/30 02:02:24;;;;;;;5.00;2.20;;;;;;;23.76;50.02;98655.03;5017415;28;20190;-83
2023/07/30 02:04:49;;;;;;;4.50;1.77;;;;;;;23.70;49.98;98657.56;5035033;28;20186;-83
2023/07/30 02:07:16;;;;;;;4.30;2.23;;;;;;;23.64;50.18;98653.75;5017591;28;20209;-83
2023/07/30 02:09:42;;;;;;;4.50;1.90;;;;;;;23.64;50.01;98664.44;5035403;28;20170;-83
2023/07/30 02:12:08;;;;;;;4.53;1.67;;;;;;;23.65;50.25;98660.78;5034917;28;20194;-83
2023/07/30 02:14:33;;;;;;;3.07;1.50;;;;;;;23.60;50.78;98662.31;5034852;28;20213;-83
2023/07/30 02:16:59;;;;;;;5.07;1.57;;;;;;;23.57;51.31;98668.84;5034814;28;20179;-83
2023/07/30 02:19:24;;;;;;;4.73;1.83;;;;;;;23.59;50.93;98669.50;5016427;28;20668;-83
2023/07/30 02:21:50;;;;;;;2.83;1.60;;;;;;;23.58;50.77;98675.03;5017306;28;20189;-83
2023/07/30 02:24:16;;;;;;;8.37;2.30;;;;;;;23.51;50.76;98668.69;5034538;28;20707;-83
2023/07/30 02:26:43;;;;;;;3.90;2.00;;;;;;;23.43;50.77;98671.38;5034629;28;20189;-84
2023/07/30 02:29:10;;;;;;;7.03;2.30;;;;;;;23.36;50.76;98671.22;5017651;28;20177;-83
2023/07/30 02:31:36;;;;;;;5.43;2.17;;;;;;;23.27;51.01;98679.47;5017004;28;20185;-83
2023/07/30 02:34:03;;;;;;;4.27;2.23;;;;;;;23.19;51.19;98686.47;5034738;28;20240;-83
2023/07/30 02:36:30;;;;;;;4.47;2.07;;;;;;;23.14;51.14;98682.66;5034705;28;20197;-83
2023/07/30 02:38:56;;;;;;;4.87;2.10;;;;;;;23.12;50.80;98679.31;5016899;28;20221;-83
2023/07/30 02:41:22;;;;;;;4.90;2.23;;;;;;;23.11;50.77;98683.03;5034613;28;20178;-83
2023/07/30 02:43:47;;;;;;;5.57;1.80;;;;;;;23.10;50.57;98686.69;5016719;28;20233;-83
2023/07/30 02:46:12;;;;;;;6.80;2.37;;;;;;;23.06;50.37;98688.84;5034469;28;20202;-83
2023/07/30 02:48:38;;;;;;;3.67;2.10;;;;;;;22.98;51.63;98685.38;5034168;28;20167;-83
2023/07/30 02:51:05;;;;;;;4.40;2.23;;;;;;;22.91;51.75;98687.03;5034212;28;20637;-83
2023/07/30 02:53:30;;;;;;;5.13;2.20;;;;;;;22.88;52.45;98684.69;5034315;28;20217;-83
2023/07/30 02:55:56;;;;;;;6.47;2.37;;;;;;;22.84;52.17;98686.06;5016630;28;20198;-83
2023/07/30 02:58:21;;;;;;;8.97;1.90;;;;;;;22.82;51.78;98693.41;5033916;28;20217;-83
2023/07/30 03:00:46;;;;;;;4.47;1.83;;;;;;;22.85;51.49;98703.78;5033888;28;20225;-83
2023/07/30 03:03:12;;;;;;;4.30;2.07;;;;;;;22.87;51.01;98691.06;5034261;28;20593;-83
2023/07/30 03:05:42;;;;;;;5.13;2.27;;;;;;;22.84;51.65;98683.38;5034462;28;20170;-83
2023/07/30 03:08:10;;;;;;;5.83;1.80;;;;;;;22.77;51.36;98685.06;5016841;28;20196;-83
2023/07/30 03:10:40;;;;;;;7.33;2.70;;;;;;;22.71;51.38;98691.06;5034120;28;20639;-83
2023/07/30 03:13:06;;;;;;;3.73;2.07;;;;;;;22.67;51.37;98689.75;5033788;28;20256;-83
2023/07/30 03:15:32;;;;;;;6.50;1.93;;;;;;;22.64;51.18;98704.28;5033986;28;20213;-83
2023/07/30 03:17:57;;;;;;;4.17;2.13;;;;;;;22.63;51.23;98700.78;5033644;28;20174;-83
2023/07/30 03:20:23;;;;;;;3.60;1.73;;;;;;;22.60;51.08;98700.22;5033642;28;20624;-83
2023/07/30 03:22:48;;;;;;;3.30;1.90;;;;;;;22.54;50.89;98701.72;5033441;28;20174;-83
2023/07/30 03:25:14;;;;;;;4.20;2.13;;;;;;;22.50;50.95;98695.06;5016157;28;20632;-83
2023/07/30 03:27:39;;;;;;;4.20;2.40;;;;;;;22.50;51.32;98697.72;5033848;28;20253;-83
2023/07/30 03:30:05;;;;;;;3.37;2.03;;;;;;;22.48;51.53;98705.06;5015523;28;20690;-83
2023/07/30 03:32:30;;;;;;;3.83;1.93;;;;;;;22.46;51.27;98708.91;5015904;28;20170;-83
2023/07/30 03:34:57;;;;;;;4.77;2.00;;;;;;;22.43;51.43;98703.91;5033661;28;20166;-83
2023/07/30 03:37:24;;;;;;;3.57;1.90;;;;;;;22.41;51.99;98703.22;5033492;28;20581;-83
2023/07/30 03:39:50;;;;;;;4.33;1.80;;;;;;;22.37;51.82;98700.06;5015890;28;20205;-83
2023/07/30 03:42:15;;;;;;;3.87;2.07;;;;;;;22.34;52.26;98695.06;5033352;28;20170;-83
2023/07/30 03:44:41;;;;;;;3.53;2.03;;;;;;;22.40;52.17;98705.06;5033417;28;20671;-84
2023/07/30 03:47:06;;;;;;;4.93;2.30;;;;;;;22.44;51.87;98706.41;5033319;28;20174;-83
2023/07/30 03:49:31;;;;;;;4.63;2.00;;;;;;;22.35;52.57;98707.38;5033138;28;20208;-83
2023/07/30 03:51:59;;;;;;;10.03;2.00;;;;;;;22.34;52.37;98700.38;5033476;28;20170;-83
2023/07/30 03:54:25;;;;;;;3.93;2.20;;;;;;;22.40;52.18;98709.56;5033770;28;20178;-83
2023/07/30 03:56:50;;;;;;;3.73;2.10;;;;;;;22.42;52.26;98715.59;5033713;28;20174;-83
2023/07/30 03:59:18;;;;;;;7.03;2.00;;;;;;;22.41;51.94;98712.06;5032850;28;20222;-83
2023/07/30 04:01:44;;;;;;;3.63;1.90;;;;;;;22.42;52.46;98719.09;5033129;28;20198;-83
2023/07/30 04:04:10;;;;;;;6.90;2.67;;;;;;;22.45;52.32;98724.13;5033135;28;20618;-82
2023/07/30 04:06:37;;;;;;;4.03;2.40;;;;;;;22.49;52.17;98719.25;5033107;28;20589;-82
2023/07/30 04:09:03;;;;;;;4.20;2.30;;;;;;;22.45;52.46;98723.28;5015656;28;20612;-82
2023/07/30 04:11:28;;;;;;;3.70;2.23;;;;;;;22.46;52.50;98728.44;5033341;28;20262;-82
2023/07/30 04:13:53;;;;;;;7.20;2.10;;;;;;;22.48;52.07;98729.09;5033317;28;20185;-82
2023/07/30 04:16:19;;;;;;;8.70;2.37;;;;;;;22.49;53.01;98717.41;5033306;28;20177;-82
2023/07/30 04:18:46;;;;;;;5.47;2.30;;;;;;;22.53;52.75;98724.13;5032919;28;20773;-83
2023/07/30 04:21:13;;;;;;;3.33;1.83;;;;;;;22.59;52.37;98717.25;5015568;28;20687;-83
2023/07/30 04:23:39;;;;;;;4.13;2.20;;;;;;;22.62;52.90;98723.13;5033490;28;20167;-83
2023/07/30 04:26:04;;;;;;;5.23;2.57;;;;;;;22.73;52.89;98726.47;5033195;28;20177;-82
2023/07/30 04:28:29;;;;;;;3.80;2.20;;;;;;;22.78;52.42;98724.13;5033160;28;20632;-82
2023/07/30 04:30:56;;;;;;;4.73;2.27;;;;;;;22.84;52.17;98728.81;5015454;28;20179;-82
2023/07/30 04:33:22;;;;;;;4.20;2.27;;;;;;;22.87;52.44;98723.16;5033385;28;20175;-82
2023/07/30 04:35:49;;;;;;;3.87;2.33;;;;;;;22.91;52.47;98729.81;5032675;28;20647;-82
2023/07/30 04:38:14;;;;;;;4.17;2.40;;;;;;;22.98;52.89;98734.31;5032770;28;20198;-82
2023/07/30 04:40:39;;;;;;;5.47;1.90;;;;;;;23.09;52.39;98735.81;5033039;28;20179;-82
2023/07/30 04:43:05;;;;;;;3.00;1.80;;;;;;;23.21;52.39;98731.78;5035548;28;20606;-83
2023/07/30 04:45:30;;;;;;;3.87;2.00;;;;;;;23.31;52.15;98736.94;5036412;28;20193;-82
2023/07/30 04:47:56;;;;;;;4.73;2.33;;;;;;;23.42;52.26;98744.66;5036503;28;20166;-83
2023/07/30 04:50:22;;;;;;;3.20;1.60;;;;;;;23.61;52.06;98731.69;5036750;28;20175;-83
2023/07/30 04:52:49;;;;;;;4.47;2.20;;;;;;;23.72;51.81;98731.31;5036251;28;20547;-82
2023/07/30 04:55:14;;;;;;;3.37;1.80;;;;;;;23.84;52.14;98735.31;5036400;28;20238;-83
2023/07/30 04:57:40;;;;;;;4.40;2.00;;;;;;;23.92;52.17;98736.28;5018884;28;20640;-83
2023/07/30 05:00:07;;;;;;;4.57;1.90;;;;;;;23.98;51.62;98736.38;5018800;28;20210;-82
2023/07/30 05:02:32;;;;;;;5.20;2.00;;;;;;;24.38;51.09;98741.56;5036089;28;20259;-82
2023/07/30 05:04:59;;;;;;;4.00;1.97;;;;;;;24.85;50.48;98744.09;5036054;28;20183;-83
2023/07/30 05:07:26;;;;;;;4.03;2.27;;;;;;;25.32;48.80;98734.91;5036155;28;20181;-82
2023/07/30 05:09:51;;;;;;;4.67;2.10;;;;;;;25.66;47.72;98735.25;5036092;28;20209;-82
2023/07/30 05:12:16;;;;;;;6.23;1.73;;;;;;;25.73;46.96;98741.56;5036084;28;20206;-83
2023/07/30 05:14:42;;;;;;;5.70;1.90;;;;;;;25.74;47.38;98740.50;5035818;28;20276;-83
2023/07/30 05:17:07;;;;;;;3.43;2.07;;;;;;;25.69;47.49;98744.78;5035938;28;20186;-83
2023/07/30 05:19:33;;;;;;;4.17;1.90;;;;;;;25.64;47.96;98738.13;5018472;28;20209;-82
2023/07/30 05:22:01;;;;;;;6.17;1.57;;;;;;;25.93;47.36;98745.31;5036085;28;20179;-83
2023/07/30 05:24:27;;;;;;;5.77;2.10;;;;;;;26.42;46.13;98742.81;5035866;28;20166;-83
2023/07/30 05:26:52;;;;;;;2.97;1.33;;;;;;;26.67;45.03;98741.44;5035815;28;20236;-83
2023/07/30 05:29:19;;;;;;;3.07;1.43;;;;;;;26.95;44.16;98740.66;5035669;28;20162;-83
2023/07/30 05:31:45;;;;;;;5.03;1.60;;;;;;;27.20;44.01;98737.34;5035674;28;20185;-82
2023/07/30 05:34:10;;;;;;;3.63;1.47;;;;;;;27.63;43.60;98740.78;5036180;28;20178;-82
2023/07/30 05:36:35;;;;;;;4.07;1.45;;;;;;;28.01;42.64;98733.09;5018053;28;20277;-83
2023/07/30 05:39:01;;;;;;;4.70;1.75;;;;;;;28.27;42.17;98735.94;5035558;28;20194;-83
2023/07/30 05:41:26;;;;;;;4.55;1.63;;;;;;;28.17;42.11;98723.88;5035482;28;20174;-83
2023/07/30 05:43:52;;;;;;;2.90;1.30;;;;;;;28.52;41.62;98738.88;5035479;28;20181;-83
2023/07/30 05:46:18;;;;;;;3.17;1.55;;;;;;;28.78;41.79;98733.56;5035644;28;20568;-83
2023/07/30 05:48:44;;;;;;;3.38;1.60;;;;;;;29.04;41.07;98738.97;5035616;28;20625;-83
2023/07/30 05:51:10;;;;;;;4.45;1.50;;;;;;;29.13;40.50;98742.28;5017866;28;20182;-83
2023/07/30 05:53:37;;;;;;;3.17;1.60;;;;;;;29.09;40.22;98741.03;5034127;28;20170;-83
2023/07/30 05:56:02;;;;;;;5.57;1.50;;;;;;;29.13;40.29;98747.69;5035560;28;20655;-83
2023/07/30 05:58:29;;;;;;;8.25;1.40;;;;;;;29.05;39.55;98742.50;5035411;28;20194;-83
2023/07/30 06:00:54;;;;;;;6.82;3.70;;;;;;;28.75;39.22;98749.34;5017585;28;20194;-83
2023/07/30 06:03:19;;;;;;;9.73;3.53;;;;;;;28.76;39.51;98743.72;5034991;28;20185;-83
2023/07/30 06:05:46;;;;;;;36.60;18.63;;;;;;;28.71;38.94;98742.69;5035026;28;20551;-83
2023/07/30 06:08:12;;;;;;;16.35;8.68;;;;;;;28.78;39.53;98738.13;5034893;28;20182;-83
2023/07/30 06:10:38;;;;;;;4.07;1.75;;;;;;;28.97;38.94;98737.31;5035136;28;20180;-83
2023/07/30 06:13:05;;;;;;;14.93;7.68;;;;;;;29.05;39.24;98734.41;5034948;28;20175;-83
2023/07/30 06:15:31;;;;;;;27.80;14.13;;;;;;;29.05;39.21;98735.25;5023707;28;20182;-83
2023/07/30 06:17:56;;;;;;;15.15;7.40;;;;;;;29.23;39.23;98724.66;5014610;28;20171;-82
2023/07/30 06:20:22;;;;;;;7.45;2.38;;;;;;;29.34;38.38;98734.00;5028649;28;20178;-83
2023/07/30 06:22:48;;;;;;;4.88;1.77;;;;;;;29.42;38.24;98724.84;5016984;28;20273;-83
2023/07/30 06:25:15;;;;;;;3.30;1.45;;;;;;;29.27;38.16;98727.78;5033745;28;20174;-83
2023/07/30 06:27:41;;;;;;;4.70;2.00;;;;;;;29.72;38.08;98731.41;5016582;28;20632;-83
2023/07/30 06:30:09;;;;;;;4.05;1.20;;;;;;;30.11;37.75;98728.59;5034381;28;20178;-83
2023/07/30 06:32:36;;;;;;;3.33;1.30;;;;;;;30.38;37.49;98721.22;5019715;28;20186;-83
2023/07/30 06:35:03;;;;;;;3.00;1.10;;;;;;;30.17;36.62;98718.78;5029914;28;20179;-83
2023/07/30 06:37:30;;;;;;;2.60;1.38;;;;;;;30.69;36.78;98715.81;5018955;28;20201;-83
2023/07/30 06:39:56;;;;;;;3.35;1.20;;;;;;;30.88;34.98;98716.69;5022812;28;20194;-83
2023/07/30 06:42:22;;;;;;;3.85;1.27;;;;;;;31.28;35.52;98717.22;5034453;28;20162;-83
2023/07/30 06:44:47;;;;;;;3.40;1.40;;;;;;;31.63;35.07;98711.03;5034638;28;20643;-83
2023/07/30 06:47:13;;;;;;;3.55;1.30;;;;;;;31.90;34.42;98705.31;5034232;28;20198;-83
2023/07/30 06:49:39;;;;;;;3.13;1.40;;;;;;;32.15;34.18;98714.22;5016843;28;20170;-83
2023/07/30 06:52:05;;;;;;;3.33;1.27;;;;;;;32.33;32.87;98699.78;5017067;28;20190;-83
2023/07/30 06:54:32;;;;;;;4.18;1.08;;;;;;;32.51;33.69;98697.00;5033937;28;20221;-83
2023/07/30 06:56:58;;;;;;;3.83;1.10;;;;;;;32.76;33.85;98701.22;5016690;28;20201;-83
2023/07/30 06:59:25;;;;;;;3.67;1.33;;;;;;;32.90;32.74;98701.00;5034509;28;20535;-83
2023/07/30 07:01:52;;;;;;;3.08;1.38;;;;;;;33.19;33.82;98697.41;5021429;28;20272;-83
2023/07/30 07:04:19;;;;;;;2.70;1.38;;;;;;;33.47;32.89;98696.66;5032252;28;20182;-84
2023/07/30 07:06:45;;;;;;;2.53;1.33;;;;;;;33.79;32.03;98689.81;5010920;28;20201;-84
2023/07/30 07:09:12;;;;;;;2.13;1.20;;;;;;;34.04;31.51;98689.50;5034146;28;20206;-83
2023/07/30 07:11:39;;;;;;;6.13;1.65;;;;;;;34.04;32.02;98694.94;5017524;28;20206;-83
2023/07/30 07:14:05;;;;;;;4.93;1.20;;;;;;;34.10;33.11;98692.09;5014116;28;20641;-83
2023/07/30 07:16:32;;;;;;;2.75;1.27;;;;;;;34.31;32.24;98694.16;5016643;28;20255;-84
2023/07/30 07:18:57;;;;;;;4.13;1.40;;;;;;;34.48;31.01;98692.31;5016244;28;20209;-83
2023/07/30 07:21:23;;;;;;;5.45;1.48;;;;;;;34.58;32.58;98699.84;5033673;28;20174;-84
2023/07/30 07:23:48;;;;;;;2.53;1.25;;;;;;;34.83;31.17;98697.53;5033069;28;20236;-83
2023/07/30 07:26:15;;;;;;;1.55;0.85;;;;;;;34.94;31.63;98693.94;5015451;28;20691;-83
2023/07/30 07:28:40;;;;;;;2.60;1.17;;;;;;;35.21;30.15;98690.56;5033100;28;20596;-84
2023/07/30 07:31:06;;;;;;;3.00;1.15;;;;;;;35.39;29.28;98691.09;5033125;28;20631;-83
2023/07/30 07:33:31;;;;;;;3.20;1.23;;;;;;;35.54;29.14;98687.78;5014071;28;20261;-83
2023/07/30 07:36:07;;;;;;;7.15;1.23;;;;;;;35.69;28.82;98690.75;5031422;28;20612;-84
2023/07/30 07:38:33;;;;;;;2.88;0.90;;;;;;;35.91;28.57;98666.16;5013821;28;20194;-83
2023/07/30 07:41:00;;;;;;;3.03;1.33;;;;;;;36.03;29.91;98680.56;5031178;28;20220;-84
2023/07/30 07:43:26;;;;;;;2.85;1.38;;;;;;;36.08;28.19;98677.88;5030830;28;20174;-84
2023/07/30 07:45:51;;;;;;;6.88;1.58;;;;;;;36.09;29.05;98663.97;5030466;28;20174;-84
2023/07/30 07:48:17;;;;;;;9.55;1.20;;;;;;;36.30;29.27;98665.00;5014760;28;20178;-84
2023/07/30 07:50:42;;;;;;;4.45;1.42;;;;;;;36.44;27.37;98666.25;5032663;28;20232;-84
2023/07/30 07:53:08;;;;;;;3.47;1.85;;;;;;;36.35;27.67;98667.78;5021198;28;20699;-83
2023/07/30 07:55:33;;;;;;;3.55;1.20;;;;;;;36.58;27.81;98663.94;5013535;28;20177;-84
2023/07/30 07:58:00;;;;;;;2.30;1.20;;;;;;;36.71;26.78;98661.63;5013343;28;20671;-84
2023/07/30 08:00:26;;;;;;;2.28;0.95;;;;;;;36.93;26.28;98656.88;5009880;28;20699;-84
2023/07/30 08:02:54;;;;;;;4.75;1.33;;;;;;;36.98;26.51;98658.03;5032859;28;20279;-84
2023/07/30 08:05:20;;;;;;;4.07;1.25;;;;;;;36.95;26.88;98654.72;5033040;28;20264;-84
2023/07/30 08:07:46;;;;;;;3.25;1.33;;;;;;;36.62;27.57;98656.88;5015766;28;20190;-84
2023/07/30 08:10:13;;;;;;;2.78;1.30;;;;;;;36.85;27.63;98660.06;5015669;28;20227;-84
2023/07/30 08:12:41;;;;;;;4.57;1.30;;;;;;;37.15;27.86;98658.69;5015670;28;20185;-85
2023/07/30 08:15:08;;;;;;;2.42;0.82;;;;;;;37.49;26.80;98657.28;5033419;28;20231;-84
2023/07/30 08:17:35;;;;;;;2.05;0.93;;;;;;;37.65;25.63;98659.00;5035160;28;20167;-84
2023/07/30 08:20:02;;;;;;;2.80;1.08;;;;;;;37.62;26.10;98656.81;5037248;28;20187;-84
2023/07/30 08:22:28;;;;;;;2.67;1.27;;;;;;;37.61;26.03;98655.16;5036998;28;20166;-84
2023/07/30 08:24:53;;;;;;;2.60;1.30;;;;;;;37.59;27.48;98656.50;5037484;28;20228;-84
2023/07/30 08:27:20;;;;;;;2.97;1.30;;;;;;;37.75;26.48;98653.56;5019464;28;20182;-85
2023/07/30 08:29:46;;;;;;;2.63;1.08;;;;;;;37.96;26.00;98652.59;5036628;28;20200;-84
2023/07/30 08:32:13;;;;;;;2.78;1.13;;;;;;;37.99;25.66;98641.13;5019242;28;20186;-85
2023/07/30 08:34:40;;;;;;;2.25;1.27;;;;;;;37.71;24.69;98638.78;5025842;28;20190;-84
2023/07/30 08:37:05;;;;;;;5.38;1.20;;;;;;;37.66;26.05;98640.69;5016001;28;20171;-84
2023/07/30 08:39:32;;;;;;;4.00;1.30;;;;;;;37.67;25.59;98637.66;5016836;28;20191;-85
2023/07/30 08:41:59;;;;;;;2.05;1.00;;;;;;;37.84;26.29;98630.06;5028663;28;20185;-85
2023/07/30 08:44:26;;;;;;;2.50;1.00;;;;;;;37.99;25.72;98635.63;5027339;28;20183;-85
2023/07/30 08:46:52;;;;;;;2.75;1.15;;;;;;;38.16;25.55;98640.84;5032551;28;20197;-87
2023/07/30 08:49:19;;;;;;;1.67;0.82;;;;;;;38.34;24.86;98632.16;5036483;28;20236;-86
2023/07/30 08:51:48;;;;;;;3.70;1.02;;;;;;;38.39;25.45;98625.88;5018973;28;20178;-84
2023/07/30 08:54:16;;;;;;;1.63;1.00;;;;;;;38.47;25.48;98625.34;5036247;28;20666;-84
2023/07/30 08:56:43;;;;;;;1.88;0.90;;;;;;;38.59;24.80;98628.63;5036352;28;20174;-84
2023/07/30 08:59:11;;;;;;;1.92;1.00;;;;;;;38.89;24.44;98623.16;5033002;28;20234;-84
2023/07/30 09:01:39;;;;;;;3.78;1.20;;;;;;;39.10;24.41;98618.47;5016267;28;20222;-85
2023/07/30 09:04:06;;;;;;;1.38;0.80;;;;;;;38.94;24.18;98620.44;5020650;28;20586;-85
2023/07/30 09:06:33;;;;;;;3.55;1.20;;;;;;;38.82;24.74;98619.88;5036485;28;20179;-85
2023/07/30 09:08:58;;;;;;;2.92;0.95;;;;;;;38.64;23.54;98620.41;5036419;28;20192;-86
2023/07/30 09:11:28;;;;;;;3.70;1.10;;;;;;;38.71;24.50;98609.97;5036101;28;20616;-85
2023/07/30 09:13:56;;;;;;;5.38;1.83;;;;;;;38.70;24.01;98602.88;5036519;28;20185;-85
2023/07/30 09:16:26;;;;;;;4.55;1.13;;;;;;;38.85;23.48;98613.84;5036039;28;20225;-84
2023/07/30 09:18:53;;;;;;;1.85;0.82;;;;;;;38.73;24.44;98599.59;5018463;28;20563;-86
2023/07/30 09:21:30;;;;;;;3.35;1.15;;;;;;;39.05;23.97;98588.31;5035937;28;20202;-86
2023/07/30 09:23:57;;;;;;;2.05;1.10;;;;;;;39.07;22.95;98592.44;5035950;28;20166;-85
2023/07/30 09:26:24;;;;;;;2.22;1.13;;;;;;;38.90;24.57;98589.16;5018199;28;20590;-86
2023/07/30 09:28:51;;;;;;;1.60;0.80;;;;;;;39.04;24.36;98587.50;5034751;28;20269;-85
2023/07/30 09:31:18;;;;;;;2.72;1.10;;;;;;;39.22;23.87;98573.22;5035122;28;20213;-88
2023/07/30 09:33:44;;;;;;;1.95;1.08;;;;;;;39.43;23.74;98567.66;5017779;28;20183;-85
2023/07/30 09:36:11;;;;;;;2.63;1.30;;;;;;;39.68;23.84;98560.16;5016201;28;20183;-86
2023/07/30 09:38:44;;;;;;;2.50;1.27;;;;;;;39.64;24.32;98563.75;5022918;28;20209;-85
2023/07/30 09:41:11;;;;;;;2.22;1.13;;;;;;;39.84;23.13;98556.22;5035878;28;20185;-85
2023/07/30 09:43:39;;;;;;;2.83;1.00;;;;;;;40.01;22.94;98549.53;5035527;28;20597;-85
2023/07/30 09:46:08;;;;;;;2.65;1.05;;;;;;;39.93;22.04;98561.94;5035813;28;20249;-85
2023/07/30 09:48:35;;;;;;;3.28;1.10;;;;;;;38.91;22.56;98560.69;5034777;28;20180;-87
2023/07/30 09:51:03;;;;;;;2.58;1.00;;;;;;;38.76;23.74;98540.72;5021443;28;20215;-85
2023/07/30 09:53:34;;;;;;;2.25;1.17;;;;;;;38.94;23.23;98538.19;5044996;28;20182;-85
2023/07/30 09:56:02;;;;;;;2.83;0.90;;;;;;;39.26;23.30;98530.41;5054711;28;20235;-85
2023/07/30 09:58:30;;;;;;;4.97;1.00;;;;;;;38.34;23.74;98538.25;5026299;28;20214;-87
2023/07/30 10:00:59;;;;;;;4.72;1.10;;;;;;;38.12;23.52;98539.31;5034862;28;20178;-86
2023/07/30 10:03:26;;;;;;;2.05;1.00;;;;;;;38.27;23.85;98532.19;5034497;28;20238;-85
2023/07/30 10:06:00;;;;;;;1.40;0.70;;;;;;;38.50;23.72;98521.50;5032014;28;20192;-85
2023/07/30 10:08:31;;;;;;;1.90;0.95;;;;;;;38.90;22.88;98515.16;5031250;28;20277;-85
2023/07/30 10:11:00;;;;;;;2.33;0.77;;;;;;;38.45;23.45;98513.31;5035043;28;20229;-87
2023/07/30 10:13:28;;;;;;;2.33;1.13;;;;;;;39.05;24.84;98512.38;5034529;28;20202;-85
2023/07/30 10:15:57;;;;;;;2.30;0.70;;;;;;;39.00;23.78;98509.66;5034232;28;20632;-85
2023/07/30 10:18:23;;;;;;;1.75;0.60;;;;;;;38.96;21.75;98508.59;5034353;28;20668;-86
2023/07/30 10:20:57;;;;;;;1.70;0.80;;;;;;;39.47;21.37;98497.44;5034796;28;20179;-86
2023/07/30 10:23:28;;;;;;;1.50;0.80;;;;;;;39.36;21.97;98501.31;5034452;28;20182;-85
2023/07/30 10:25:55;;;;;;;1.85;0.90;;;;;;;39.56;22.36;98490.22;5034437;28;20198;-86
2023/07/30 10:28:30;;;;;;;1.83;0.80;;;;;;;39.57;22.43;98492.69;5044081;28;20682;-85
2023/07/30 10:31:08;;;;;;;1.27;0.75;;;;;;;39.63;21.55;98485.28;5013304;28;20201;-85
2023/07/30 10:33:53;;;;;;;3.58;0.75;;;;;;;39.54;21.28;98487.78;5031311;28;20197;-86
2023/07/30 10:36:41;;;;;;;5.28;1.30;;;;;;;39.88;21.90;98474.97;5032941;28;20178;-84
2023/07/30 10:39:25;;;;;;;2.38;0.80;;;;;;;40.16;19.83;98481.63;5047396;28;20232;-86
2023/07/30 10:41:57;;;;;;;1.75;0.80;;;;;;;39.59;21.05;98482.25;5027203;28;20189;-86
2023/07/30 10:44:32;;;;;;;2.78;1.27;;;;;;;40.01;21.33;98478.97;5032948;28;20295;-86
2023/07/30 10:46:59;;;;;;;2.58;1.10;;;;;;;40.23;20.76;98478.53;5024349;28;20181;-85
2023/07/30 10:49:25;;;;;;;3.28;1.20;;;;;;;40.24;22.02;98475.50;5033540;28;20182;-86
2023/07/30 10:51:57;;;;;;;3.20;1.38;;;;;;;40.25;20.79;98471.66;5034126;28;20273;-87
2023/07/30 10:54:23;;;;;;;2.85;1.00;;;;;;;39.63;21.25;98466.88;5033578;28;20201;-86
2023/07/30 10:56:51;;;;;;;2.00;0.90;;;;;;;39.97;21.54;98464.16;5033797;28;20217;-86
2023/07/30 10:59:19;;;;;;;1.70;0.90;;;;;;;40.17;20.72;98465.97;5032689;28;20224;-86
2023/07/30 11:01:45;;;;;;;3.15;1.20;;;;;;;40.10;20.26;98458.03;5033968;28;20236;-86
2023/07/30 11:04:19;;;;;;;1.92;0.95;;;;;;;40.14;21.52;98459.13;5053748;28;20221;-85
2023/07/30 11:06:49;;;;;;;1.85;1.00;;;;;;;40.55;21.02;98458.75;5021633;28;20534;-85
2023/07/30 11:09:26;;;;;;;1.88;0.95;;;;;;;40.98;20.39;98446.75;5032684;28;20254;-85
2023/07/30 11:11:55;;;;;;;2.40;0.70;;;;;;;40.97;20.60;98445.91;5027959;28;20655;-87
2023/07/30 11:14:25;;;;;;;1.80;0.82;;;;;;;41.09;20.45;98442.75;5013614;28;20727;-90
2023/07/30 11:17:00;;;;;;;1.90;0.95;;;;;;;41.29;20.21;98442.47;5018913;28;20598;-87
2023/07/30 11:19:27;;;;;;;1.70;0.82;;;;;;;41.40;20.17;98437.66;5015483;28;20585;-87
2023/07/30 11:21:56;;;;;;;1.73;0.80;;;;;;;41.36;19.81;98437.44;5033211;28;20257;-86
2023/07/30 11:24:24;;;;;;;1.67;0.80;;;;;;;41.44;20.82;98438.69;5013643;28;20191;-87
2023/07/30 11:27:01;;;;;;;3.08;1.25;;;;;;;41.83;19.91;98432.88;5002579;28;20260;-85
2023/07/30 11:29:33;;;;;;;2.13;1.05;;;;;;;41.35;19.83;98426.75;5033252;28;20198;-86
2023/07/30 11:32:02;;;;;;;1.95;0.95;;;;;;;41.68;20.40;98425.69;5020995;28;20167;-85